CST,Max TemperatureF,Mean TemperatureF,Min TemperatureF,Max Dew PointF,MeanDew PointF,Min DewpointF,Max Humidity, Mean Humidity, Min Humidity, Max Sea Level PressureIn, Mean Sea Level PressureIn, Min Sea Level PressureIn, Max VisibilityMiles, Mean VisibilityMiles, Min VisibilityMiles, Max Wind SpeedMPH, Mean Wind SpeedMPH, Max Gust SpeedMPH,PrecipitationIn, CloudCover, Events, WindDirDegrees
2012-11-1,77,56,35,39,28,25,70,40,15,30.22,30.15,30.08,10,10,10,10,0,,0.00,0,,197
2012-11-2,77,59,41,45,34,28,81,47,19,30.15,30.09,30.03,10,10,9,13,1,20,0.00,0,,167
2012-11-3,73,58,44,50,40,30,93,54,29,30.21,30.15,30.08,10,10,10,25,4,26,0.03,3,Thunderstorm,18
2012-11-4,73,58,42,48,42,37,87,66,29,30.29,30.23,30.20,10,10,10,22,5,,0.00,0,,357
2012-11-5,75,57,39,43,34,25,87,52,15,30.29,30.25,30.20,10,10,10,13,1,17,0.00,0,,18
2012-11-6,78,56,35,36,28,23,75,43,14,30.32,30.25,30.21,10,10,10,13,1,16,0.00,0,,282
2012-11-7,78,58,37,36,30,25,70,41,17,30.29,30.22,30.15,10,10,10,15,2,22,0.00,0,,180
2012-11-8,78,58,39,37,32,27,70,42,18,30.20,30.12,30.05,10,10,10,18,2,22,0.00,0,,174
2012-11-9,78,58,39,46,37,32,81,47,21,30.14,30.06,30.00,10,10,10,23,3,31,0.00,1,,192
2012-11-10,75,57,39,46,39,30,93,53,25,30.03,29.95,29.86,10,10,10,28,5,36,0.00,1,,190
2012-11-11,57,42,26,32,21,5,53,37,24,30.33,30.11,29.91,10,10,10,21,9,26,0.00,0,,288
2012-11-12,55,40,24,9,5,1,40,24,13,30.46,30.38,30.34,10,10,10,15,2,18,0.00,0,,49
2012-11-13,60,45,30,23,16,7,55,33,22,30.36,30.29,30.21,10,10,10,12,1,16,0.00,0,,169
2012-11-14,66,46,26,25,20,16,69,41,19,30.37,30.29,30.24,10,10,10,9,1,,0.00,0,,177
2012-11-15,73,50,28,30,24,18,64,39,14,30.30,30.24,30.18,10,10,10,14,3,26,0.00,0,,10
2012-11-16,66,54,39,30,24,18,57,34,22,30.36,30.30,30.24,10,10,10,16,2,16,0.00,2,,70
2012-11-17,66,50,33,48,41,27,88,69,46,30.32,30.27,30.23,10,10,8,12,2,16,0.00,2,,167
2012-11-18,66,58,50,52,48,45,94,76,52,30.28,30.22,30.18,10,10,10,0,0,,0.00,4,,-1
2012-11-19,71,56,41,48,41,37,93,66,33,30.34,30.28,30.24,10,10,10,12,0,16,0.00,1,,272
2012-11-20,71,54,37,43,38,32,87,53,35,30.35,30.29,30.24,10,10,10,10,1,,0.00,0,,90
2012-11-21,68,56,44,48,43,34,94,66,43,30.32,30.26,30.19,10,10,10,24,2,31,0.14,2,,189
2012-11-22,71,55,39,52,44,37,100,75,35,30.26,30.20,30.17,10,10,10,12,1,17,0.00,0,,233
2012-11-23,53,45,37,39,28,23,87,53,33,30.48,30.40,30.26,10,10,10,26,10,32,0.00,0,,20
2012-11-24,64,46,28,43,32,21,93,65,42,30.45,30.31,30.18,10,10,10,13,2,,0.00,0,,178
2012-11-25,71,50,30,45,35,28,100,64,23,30.18,30.10,30.03,10,10,10,20,2,28,0.00,0,,253
2012-11-26,69,54,39,43,32,23,81,50,23,30.30,30.15,30.06,10,10,10,21,3,26,0.00,3,,339
2012-11-27,62,47,32,39,31,25,81,60,39,30.43,30.36,30.31,10,10,8,20,8,26,0.00,0,,29
2012-11-28,66,48,30,43,33,28,93,59,30,30.39,30.32,30.25,10,10,10,12,1,,0.00,0,,166
2012-11-29,71,52,33,39,31,27,81,51,22,30.28,30.23,30.18,10,10,10,15,2,22,0.00,0,,282
2012-11-30,73,53,33,37,30,25,81,50,20,30.26,30.21,30.16,10,10,10,17,3,23,0.00,0,,239